sensor_id;sensor_type;location;lat;lon;timestamp;pressure;altitude;pressure_sealevel;temperature;humidity
9474;BME280;8865;47.636;7.692;2023-05-29T00:00:51;98090.84;;;14.24;nan
9474;BME280;8865;47.636;7.692;2023-05-29T00:03:18;98087.72;;;14.21;nan
9474;BME280;8865;47.636;7.692;2023-05-29T00:05:44;98095.06;;;14.17;nan
9474;BME280;8865;47.636;7.692;2023-05-29T00:08:10;98085.03;;;14.13;nan
9474;BME280;8865;47.636;7.692;2023-05-29T00:10:36;98089.63;;;14.10;nan
9474;BME280;8865;47.636;7.692;2023-05-29T00:13:03;98098.81;;;14.06;nan
9474;BME280;8865;47.636;7.692;2023-05-29T00:15:29;98099.31;;;14.02;nan
9474;BME280;8865;47.636;7.692;2023-05-29T00:17:56;98099.78;;;13.97;nan
9474;BME280;8865;47.636;7.692;2023-05-29T00:20:22;98099.13;;;13.95;nan
9474;BME280;8865;47.636;7.692;2023-05-29T00:22:48;98103.56;;;13.95;nan
9474;BME280;8865;47.636;7.692;2023-05-29T00:25:14;98108.16;;;13.92;nan
9474;BME280;8865;47.636;7.692;2023-05-29T00:27:41;98105.81;;;13.89;nan
9474;BME280;8865;47.636;7.692;2023-05-29T00:30:07;98107.16;;;13.85;nan
9474;BME280;8865;47.636;7.692;2023-05-29T00:32:33;98107.78;;;13.79;nan
9474;BME280;8865;47.636;7.692;2023-05-29T00:34:59;98114.16;;;13.77;nan
9474;BME280;8865;47.636;7.692;2023-05-29T00:37:25;98112.81;;;13.72;nan
9474;BME280;8865;47.636;7.692;2023-05-29T00:39:52;98113.13;;;13.69;nan
9474;BME280;8865;47.636;7.692;2023-05-29T00:42:18;98116.88;;;13.67;nan
9474;BME280;8865;47.636;7.692;2023-05-29T00:44:44;98117.50;;;13.61;nan
9474;BME280;8865;47.636;7.692;2023-05-29T00:47:10;98115.34;;;13.56;nan
9474;BME280;8865;47.636;7.692;2023-05-29T00:49:36;98121.06;;;13.51;nan
9474;BME280;8865;47.636;7.692;2023-05-29T00:52:04;98115.59;;;13.45;nan
9474;BME280;8865;47.636;7.692;2023-05-29T00:54:35;98122.16;;;13.40;nan
9474;BME280;8865;47.636;7.692;2023-05-29T00:57:05;98128.56;;;13.38;nan
9474;BME280;8865;47.636;7.692;2023-05-29T00:59:32;98128.88;;;13.35;nan
9474;BME280;8865;47.636;7.692;2023-05-29T01:02:01;98124.69;;;13.32;nan
9474;BME280;8865;47.636;7.692;2023-05-29T01:04:28;98126.81;;;13.29;nan
9474;BME280;8865;47.636;7.692;2023-05-29T01:06:54;98120.19;;;13.25;nan
9474;BME280;8865;47.636;7.692;2023-05-29T01:09:21;98119.53;;;13.22;nan
9474;BME280;8865;47.636;7.692;2023-05-29T01:12:23;98122.63;;;13.18;nan
9474;BME280;8865;47.636;7.692;2023-05-29T01:20:44;98124.28;;;13.01;nan
9474;BME280;8865;47.636;7.692;2023-05-29T01:28:57;98116.47;;;12.91;nan
9474;BME280;8865;47.636;7.692;2023-05-29T01:31:26;98116.63;;;12.90;nan
9474;BME280;8865;47.636;7.692;2023-05-29T01:33:55;98119.69;;;12.85;nan
9474;BME280;8865;47.636;7.692;2023-05-29T01:36:21;98113.91;;;12.81;nan
9474;BME280;8865;47.636;7.692;2023-05-29T01:38:49;98127.06;;;12.81;nan
9474;BME280;8865;47.636;7.692;2023-05-29T01:41:16;98118.66;;;12.78;nan
9474;BME280;8865;47.636;7.692;2023-05-29T01:43:44;98118.97;;;12.75;nan
9474;BME280;8865;47.636;7.692;2023-05-29T01:46:12;98111.22;;;12.73;nan
9474;BME280;8865;47.636;7.692;2023-05-29T01:48:40;98115.94;;;12.69;nan
9474;BME280;8865;47.636;7.692;2023-05-29T01:51:07;98114.44;;;12.67;nan
9474;BME280;8865;47.636;7.692;2023-05-29T01:53:33;98109.59;;;12.62;nan
9474;BME280;8865;47.636;7.692;2023-05-29T01:55:59;98108.94;;;12.60;nan
9474;BME280;8865;47.636;7.692;2023-05-29T01:58:26;98119.06;;;12.55;nan
9474;BME280;8865;47.636;7.692;2023-05-29T02:00:53;98117.72;;;12.51;nan
9474;BME280;8865;47.636;7.692;2023-05-29T02:03:21;98123.41;;;12.46;nan
9474;BME280;8865;47.636;7.692;2023-05-29T02:05:47;98125.38;;;12.44;nan
9474;BME280;8865;47.636;7.692;2023-05-29T02:08:13;98121.22;;;12.42;nan
9474;BME280;8865;47.636;7.692;2023-05-29T02:10:39;98120.69;;;12.38;nan
9474;BME280;8865;47.636;7.692;2023-05-29T02:13:05;98116.72;;;12.34;nan
9474;BME280;8865;47.636;7.692;2023-05-29T02:15:30;98115.34;;;12.30;nan
9474;BME280;8865;47.636;7.692;2023-05-29T02:17:56;98119.91;;;12.28;nan
9474;BME280;8865;47.636;7.692;2023-05-29T02:20:24;98112.47;;;12.23;nan
9474;BME280;8865;47.636;7.692;2023-05-29T02:22:50;98107.38;;;12.22;nan
9474;BME280;8865;47.636;7.692;2023-05-29T02:25:16;98119.97;;;12.18;nan
9474;BME280;8865;47.636;7.692;2023-05-29T02:27:42;98113.38;;;12.14;nan
9474;BME280;8865;47.636;7.692;2023-05-29T02:30:08;98119.56;;;12.13;nan
9474;BME280;8865;47.636;7.692;2023-05-29T02:32:34;98119.19;;;12.08;nan
9474;BME280;8865;47.636;7.692;2023-05-29T02:35:00;98125.41;;;12.07;nan
9474;BME280;8865;47.636;7.692;2023-05-29T02:37:26;98117.69;;;12.05;nan
9474;BME280;8865;47.636;7.692;2023-05-29T02:39:52;98117.69;;;12.05;nan
9474;BME280;8865;47.636;7.692;2023-05-29T02:42:18;98130.13;;;12.03;nan
9474;BME280;8865;47.636;7.692;2023-05-29T02:44:44;98129.47;;;12.01;nan
9474;BME280;8865;47.636;7.692;2023-05-29T02:47:10;98141.88;;;11.99;nan
9474;BME280;8865;47.636;7.692;2023-05-29T02:49:36;98139.81;;;11.93;nan
9474;BME280;8865;47.636;7.692;2023-05-29T02:52:02;98137.59;;;11.88;nan
9474;BME280;8865;47.636;7.692;2023-05-29T02:54:28;98136.53;;;11.81;nan
9474;BME280;8865;47.636;7.692;2023-05-29T02:56:54;98140.13;;;11.80;nan
9474;BME280;8865;47.636;7.692;2023-05-29T02:59:20;98139.59;;;11.76;nan
9474;BME280;8865;47.636;7.692;2023-05-29T03:01:46;98140.69;;;11.74;nan
9474;BME280;8865;47.636;7.692;2023-05-29T03:04:14;98142.78;;;11.70;nan
9474;BME280;8865;47.636;7.692;2023-05-29T03:06:40;98144.84;;;11.67;nan
9474;BME280;8865;47.636;7.692;2023-05-29T03:09:06;98132.88;;;11.64;nan
9474;BME280;8865;47.636;7.692;2023-05-29T03:11:32;98134.78;;;11.62;nan
9474;BME280;8865;47.636;7.692;2023-05-29T03:13:59;98131.75;;;11.57;nan
9474;BME280;8865;47.636;7.692;2023-05-29T03:16:25;98133.69;;;11.55;nan
9474;BME280;8865;47.636;7.692;2023-05-29T03:18:51;98125.28;;;11.51;nan
9474;BME280;8865;47.636;7.692;2023-05-29T03:21:17;98138.81;;;11.47;nan
9474;BME280;8865;47.636;7.692;2023-05-29T03:23:43;98140.75;;;11.44;nan
9474;BME280;8865;47.636;7.692;2023-05-29T03:26:09;98129.56;;;11.42;nan
9474;BME280;8865;47.636;7.692;2023-05-29T03:28:36;98130.00;;;11.38;nan
9474;BME280;8865;47.636;7.692;2023-05-29T03:31:02;98133.59;;;11.37;nan
9474;BME280;8865;47.636;7.692;2023-05-29T03:33:28;98130.28;;;11.35;nan
9474;BME280;8865;47.636;7.692;2023-05-29T03:35:54;98126.97;;;11.33;nan
9474;BME280;8865;47.636;7.692;2023-05-29T03:38:21;98130.69;;;11.30;nan
9474;BME280;8865;47.636;7.692;2023-05-29T03:40:47;98126.00;;;11.24;nan
9474;BME280;8865;47.636;7.692;2023-05-29T03:43:13;98129.91;;;11.20;nan
9474;BME280;8865;47.636;7.692;2023-05-29T03:45:39;98136.09;;;11.19;nan
9474;BME280;8865;47.636;7.692;2023-05-29T03:48:05;98133.47;;;11.19;nan
9474;BME280;8865;47.636;7.692;2023-05-29T03:50:31;98140.66;;;11.17;nan
9474;BME280;8865;47.636;7.692;2023-05-29T03:52:57;98138.72;;;11.19;nan
9474;BME280;8865;47.636;7.692;2023-05-29T03:55:23;98144.63;;;11.21;nan
9474;BME280;8865;47.636;7.692;2023-05-29T03:57:49;98143.16;;;11.18;nan
9474;BME280;8865;47.636;7.692;2023-05-29T04:00:15;98144.78;;;11.19;nan
9474;BME280;8865;47.636;7.692;2023-05-29T04:02:42;98149.19;;;11.19;nan
9474;BME280;8865;47.636;7.692;2023-05-29T04:05:08;98150.88;;;11.20;nan
9474;BME280;8865;47.636;7.692;2023-05-29T04:07:38;98150.03;;;11.19;nan
9474;BME280;8865;47.636;7.692;2023-05-29T04:10:06;98156.94;;;11.20;nan
9474;BME280;8865;47.636;7.692;2023-05-29T04:12:32;98155.84;;;11.23;nan
9474;BME280;8865;47.636;7.692;2023-05-29T04:14:58;98164.66;;;11.22;nan
9474;BME280;8865;47.636;7.692;2023-05-29T04:17:25;98161.06;;;11.23;nan
9474;BME280;8865;47.636;7.692;2023-05-29T04:19:50;98165.75;;;11.29;nan
9474;BME280;8865;47.636;7.692;2023-05-29T04:22:16;98166.44;;;11.31;nan
9474;BME280;8865;47.636;7.692;2023-05-29T04:24:43;98183.13;;;11.30;nan
9474;BME280;8865;47.636;7.692;2023-05-29T04:27:09;98173.91;;;11.26;nan
9474;BME280;8865;47.636;7.692;2023-05-29T04:29:39;98171.28;;;11.26;nan
9474;BME280;8865;47.636;7.692;2023-05-29T04:32:06;98175.84;;;11.34;nan
9474;BME280;8865;47.636;7.692;2023-05-29T04:34:34;98177.75;;;11.41;nan
9474;BME280;8865;47.636;7.692;2023-05-29T04:37:00;98191.41;;;11.45;nan
9474;BME280;8865;47.636;7.692;2023-05-29T04:39:26;98184.06;;;11.49;nan
9474;BME280;8865;47.636;7.692;2023-05-29T04:41:52;98188.09;;;11.53;nan
9474;BME280;8865;47.636;7.692;2023-05-29T04:44:18;98183.13;;;11.59;nan
9474;BME280;8865;47.636;7.692;2023-05-29T04:46:44;98194.69;;;11.67;nan
9474;BME280;8865;47.636;7.692;2023-05-29T04:49:11;98200.22;;;11.73;nan
9474;BME280;8865;47.636;7.692;2023-05-29T04:51:39;98203.25;;;11.78;nan
9474;BME280;8865;47.636;7.692;2023-05-29T04:54:08;98200.44;;;11.90;nan
9474;BME280;8865;47.636;7.692;2023-05-29T04:56:37;98203.25;;;11.98;nan
9474;BME280;8865;47.636;7.692;2023-05-29T04:59:06;98202.09;;;12.01;nan
9474;BME280;8865;47.636;7.692;2023-05-29T05:01:35;98198.75;;;12.08;nan
9474;BME280;8865;47.636;7.692;2023-05-29T05:04:00;98201.66;;;12.15;nan
9474;BME280;8865;47.636;7.692;2023-05-29T05:06:27;98208.69;;;12.24;nan
9474;BME280;8865;47.636;7.692;2023-05-29T05:08:54;98206.81;;;12.35;nan
9474;BME280;8865;47.636;7.692;2023-05-29T05:11:22;98204.03;;;12.46;nan
9474;BME280;8865;47.636;7.692;2023-05-29T05:13:48;98200.91;;;12.60;nan
9474;BME280;8865;47.636;7.692;2023-05-29T05:16:14;98206.13;;;12.70;nan
9474;BME280;8865;47.636;7.692;2023-05-29T05:18:40;98201.63;;;12.80;nan
9474;BME280;8865;47.636;7.692;2023-05-29T05:21:06;98199.91;;;12.89;nan
9474;BME280;8865;47.636;7.692;2023-05-29T05:23:33;98201.50;;;13.00;nan
9474;BME280;8865;47.636;7.692;2023-05-29T05:25:59;98208.78;;;13.06;nan
9474;BME280;8865;47.636;7.692;2023-05-29T05:28:25;98202.47;;;13.17;nan
9474;BME280;8865;47.636;7.692;2023-05-29T05:30:51;98204.22;;;13.26;nan
9474;BME280;8865;47.636;7.692;2023-05-29T05:33:17;98196.97;;;13.38;nan
9474;BME280;8865;47.636;7.692;2023-05-29T05:35:43;98196.50;;;13.43;nan
9474;BME280;8865;47.636;7.692;2023-05-29T05:38:09;98196.09;;;13.55;nan
9474;BME280;8865;47.636;7.692;2023-05-29T05:40:35;98196.16;;;13.64;nan
9474;BME280;8865;47.636;7.692;2023-05-29T05:43:01;98203.16;;;13.73;nan
9474;BME280;8865;47.636;7.692;2023-05-29T05:45:27;98204.88;;;13.82;nan
9474;BME280;8865;47.636;7.692;2023-05-29T05:47:53;98207.22;;;13.93;nan
9474;BME280;8865;47.636;7.692;2023-05-29T05:50:19;98199.22;;;14.03;nan
9474;BME280;8865;47.636;7.692;2023-05-29T05:52:46;98206.88;;;14.15;nan
9474;BME280;8865;47.636;7.692;2023-05-29T05:55:12;98215.94;;;14.20;nan
9474;BME280;8865;47.636;7.692;2023-05-29T05:57:38;98214.84;;;14.31;nan
9474;BME280;8865;47.636;7.692;2023-05-29T06:00:05;98213.56;;;14.43;nan
9474;BME280;8865;47.636;7.692;2023-05-29T06:02:40;98208.84;;;14.55;nan
9474;BME280;8865;47.636;7.692;2023-05-29T06:05:08;98212.41;;;14.72;nan
9474;BME280;8865;47.636;7.692;2023-05-29T06:07:35;98210.94;;;14.78;nan
9474;BME280;8865;47.636;7.692;2023-05-29T06:10:02;98207.84;;;14.91;nan
9474;BME280;8865;47.636;7.692;2023-05-29T06:12:29;98211.00;;;14.94;nan
9474;BME280;8865;47.636;7.692;2023-05-29T06:14:56;98211.19;;;15.01;nan
9474;BME280;8865;47.636;7.692;2023-05-29T06:17:22;98201.25;;;14.87;nan
9474;BME280;8865;47.636;7.692;2023-05-29T06:19:49;98201.44;;;15.02;nan
9474;BME280;8865;47.636;7.692;2023-05-29T06:22:15;98196.19;;;15.10;nan
9474;BME280;8865;47.636;7.692;2023-05-29T06:24:41;98201.63;;;15.25;nan
9474;BME280;8865;47.636;7.692;2023-05-29T06:27:07;98209.06;;;15.29;nan
9474;BME280;8865;47.636;7.692;2023-05-29T06:29:33;98202.81;;;15.30;nan
9474;BME280;8865;47.636;7.692;2023-05-29T06:31:59;98208.06;;;15.39;nan
9474;BME280;8865;47.636;7.692;2023-05-29T06:34:26;98206.44;;;15.54;nan
9474;BME280;8865;47.636;7.692;2023-05-29T06:36:52;98215.16;;;15.71;nan
9474;BME280;8865;47.636;7.692;2023-05-29T06:39:18;98211.25;;;15.83;nan
9474;BME280;8865;47.636;7.692;2023-05-29T06:41:46;98217.69;;;15.81;nan
9474;BME280;8865;47.636;7.692;2023-05-29T06:44:12;98209.41;;;15.92;nan
9474;BME280;8865;47.636;7.692;2023-05-29T06:46:38;98213.69;;;16.01;nan
9474;BME280;8865;47.636;7.692;2023-05-29T06:49:04;98218.47;;;16.14;nan
9474;BME280;8865;47.636;7.692;2023-05-29T06:51:30;98214.31;;;16.28;nan
9474;BME280;8865;47.636;7.692;2023-05-29T06:53:58;98214.59;;;16.33;nan
9474;BME280;8865;47.636;7.692;2023-05-29T06:56:24;98216.25;;;16.34;nan
9474;BME280;8865;47.636;7.692;2023-05-29T06:58:50;98221.13;;;16.54;nan
9474;BME280;8865;47.636;7.692;2023-05-29T07:01:15;98218.88;;;16.74;nan
9474;BME280;8865;47.636;7.692;2023-05-29T07:03:46;98224.00;;;16.84;nan
9474;BME280;8865;47.636;7.692;2023-05-29T07:06:12;98214.75;;;16.88;nan
9474;BME280;8865;47.636;7.692;2023-05-29T07:08:38;98217.34;;;16.96;nan
9474;BME280;8865;47.636;7.692;2023-05-29T07:11:04;98220.69;;;16.90;nan
9474;BME280;8865;47.636;7.692;2023-05-29T07:13:30;98221.88;;;17.10;nan
9474;BME280;8865;47.636;7.692;2023-05-29T07:15:56;98226.28;;;17.18;nan
9474;BME280;8865;47.636;7.692;2023-05-29T07:18:22;98221.25;;;17.31;nan
9474;BME280;8865;47.636;7.692;2023-05-29T07:20:48;98220.66;;;17.44;nan
9474;BME280;8865;47.636;7.692;2023-05-29T07:23:14;98225.00;;;17.60;nan
9474;BME280;8865;47.636;7.692;2023-05-29T07:25:41;98232.69;;;17.70;nan
9474;BME280;8865;47.636;7.692;2023-05-29T07:28:07;98221.38;;;17.76;nan
9474;BME280;8865;47.636;7.692;2023-05-29T07:30:33;98216.78;;;17.93;nan
9474;BME280;8865;47.636;7.692;2023-05-29T07:32:59;98228.78;;;18.04;nan
9474;BME280;8865;47.636;7.692;2023-05-29T07:35:25;98231.91;;;18.23;nan
9474;BME280;8865;47.636;7.692;2023-05-29T07:37:51;98233.47;;;18.32;nan
9474;BME280;8865;47.636;7.692;2023-05-29T07:40:18;98230.63;;;18.33;nan
9474;BME280;8865;47.636;7.692;2023-05-29T07:42:44;98224.03;;;18.44;nan
9474;BME280;8865;47.636;7.692;2023-05-29T07:45:09;98229.63;;;18.49;nan
9474;BME280;8865;47.636;7.692;2023-05-29T07:47:37;98226.13;;;18.64;nan
9474;BME280;8865;47.636;7.692;2023-05-29T07:50:03;98232.50;;;18.84;nan
9474;BME280;8865;47.636;7.692;2023-05-29T07:52:29;98229.41;;;18.96;nan
9474;BME280;8865;47.636;7.692;2023-05-29T07:54:55;98236.25;;;19.05;nan
9474;BME280;8865;47.636;7.692;2023-05-29T07:57:21;98228.44;;;19.18;nan
9474;BME280;8865;47.636;7.692;2023-05-29T07:59:47;98233.69;;;19.33;nan
9474;BME280;8865;47.636;7.692;2023-05-29T08:02:15;98237.28;;;19.47;nan
9474;BME280;8865;47.636;7.692;2023-05-29T08:04:42;98232.91;;;19.61;nan
9474;BME280;8865;47.636;7.692;2023-05-29T08:07:08;98230.38;;;19.74;nan
9474;BME280;8865;47.636;7.692;2023-05-29T08:09:35;98235.00;;;19.66;nan
9474;BME280;8865;47.636;7.692;2023-05-29T08:12:01;98234.56;;;19.62;nan
9474;BME280;8865;47.636;7.692;2023-05-29T08:14:28;98223.00;;;19.48;nan
9474;BME280;8865;47.636;7.692;2023-05-29T08:16:55;98228.53;;;19.75;nan
9474;BME280;8865;47.636;7.692;2023-05-29T08:19:21;98221.72;;;19.66;nan
9474;BME280;8865;47.636;7.692;2023-05-29T08:21:47;98221.72;;;19.66;nan
9474;BME280;8865;47.636;7.692;2023-05-29T08:24:13;98221.72;;;19.66;nan
9474;BME280;8865;47.636;7.692;2023-05-29T08:26:39;98224.94;;;19.83;nan
9474;BME280;8865;47.636;7.692;2023-05-29T08:29:06;98226.53;;;19.98;nan
9474;BME280;8865;47.636;7.692;2023-05-29T08:31:32;98226.84;;;20.17;nan
9474;BME280;8865;47.636;7.692;2023-05-29T08:33:58;98234.38;;;19.85;nan
9474;BME280;8865;47.636;7.692;2023-05-29T08:36:24;98231.16;;;19.90;nan
9474;BME280;8865;47.636;7.692;2023-05-29T08:38:51;98230.78;;;20.21;nan
9474;BME280;8865;47.636;7.692;2023-05-29T08:44:13;98224.81;;;20.54;nan
9474;BME280;8865;47.636;7.692;2023-05-29T08:46:40;98232.09;;;20.74;nan
9474;BME280;8865;47.636;7.692;2023-05-29T08:49:08;98230.13;;;21.02;nan
9474;BME280;8865;47.636;7.692;2023-05-29T08:51:37;98230.31;;;20.94;nan
9474;BME280;8865;47.636;7.692;2023-05-29T08:54:04;98228.75;;;21.20;nan
9474;BME280;8865;47.636;7.692;2023-05-29T08:56:31;98230.00;;;21.37;nan
9474;BME280;8865;47.636;7.692;2023-05-29T08:58:57;98231.50;;;21.60;nan
9474;BME280;8865;47.636;7.692;2023-05-29T09:01:24;98224.56;;;21.86;nan
9474;BME280;8865;47.636;7.692;2023-05-29T09:03:51;98227.00;;;21.94;nan
9474;BME280;8865;47.636;7.692;2023-05-29T09:06:17;98223.72;;;22.12;nan
9474;BME280;8865;47.636;7.692;2023-05-29T09:08:43;98230.91;;;22.32;nan
9474;BME280;8865;47.636;7.692;2023-05-29T09:11:10;98231.47;;;22.40;nan
9474;BME280;8865;47.636;7.692;2023-05-29T09:13:36;98234.53;;;22.51;nan
9474;BME280;8865;47.636;7.692;2023-05-29T09:16:03;98221.72;;;22.73;nan
9474;BME280;8865;47.636;7.692;2023-05-29T09:18:30;98225.25;;;22.60;nan
9474;BME280;8865;47.636;7.692;2023-05-29T09:20:57;98225.22;;;22.67;nan
9474;BME280;8865;47.636;7.692;2023-05-29T09:23:25;98228.16;;;22.52;nan
9474;BME280;8865;47.636;7.692;2023-05-29T09:25:53;98222.63;;;22.53;nan
9474;BME280;8865;47.636;7.692;2023-05-29T09:28:21;98224.66;;;23.03;nan
9474;BME280;8865;47.636;7.692;2023-05-29T09:30:49;98217.56;;;23.29;nan
9474;BME280;8865;47.636;7.692;2023-05-29T09:33:16;98218.22;;;23.17;nan
9474;BME280;8865;47.636;7.692;2023-05-29T09:35:50;98222.25;;;23.33;nan
9474;BME280;8865;47.636;7.692;2023-05-29T09:38:17;98220.66;;;23.58;nan
9474;BME280;8865;47.636;7.692;2023-05-29T09:40:43;98226.66;;;23.78;nan
9474;BME280;8865;47.636;7.692;2023-05-29T09:43:13;98223.06;;;24.16;nan
9474;BME280;8865;47.636;7.692;2023-05-29T09:45:41;98225.00;;;24.28;nan
9474;BME280;8865;47.636;7.692;2023-05-29T09:48:12;98216.88;;;24.16;nan
9474;BME280;8865;47.636;7.692;2023-05-29T09:50:39;98217.28;;;24.19;nan
9474;BME280;8865;47.636;7.692;2023-05-29T09:53:22;98212.72;;;24.38;nan
9474;BME280;8865;47.636;7.692;2023-05-29T09:55:52;98220.19;;;24.73;nan
9474;BME280;8865;47.636;7.692;2023-05-29T09:58:18;98214.41;;;25.07;nan
9474;BME280;8865;47.636;7.692;2023-05-29T10:00:45;98212.88;;;24.99;nan
9474;BME280;8865;47.636;7.692;2023-05-29T10:03:13;98205.19;;;25.03;nan
9474;BME280;8865;47.636;7.692;2023-05-29T10:05:42;98206.69;;;25.29;nan
9474;BME280;8865;47.636;7.692;2023-05-29T10:08:12;98207.69;;;25.58;nan
9474;BME280;8865;47.636;7.692;2023-05-29T10:10:43;98197.44;;;25.91;nan
9474;BME280;8865;47.636;7.692;2023-05-29T10:13:11;98207.06;;;26.34;nan
9474;BME280;8865;47.636;7.692;2023-05-29T10:15:40;98203.41;;;26.40;nan
9474;BME280;8865;47.636;7.692;2023-05-29T10:18:38;98188.59;;;26.78;nan
9474;BME280;8865;47.636;7.692;2023-05-29T10:21:12;98192.25;;;26.72;nan
9474;BME280;8865;47.636;7.692;2023-05-29T10:23:40;98190.00;;;26.81;nan
9474;BME280;8865;47.636;7.692;2023-05-29T10:26:18;98181.94;;;26.81;nan
9474;BME280;8865;47.636;7.692;2023-05-29T10:28:55;98172.44;;;27.19;nan
9474;BME280;8865;47.636;7.692;2023-05-29T10:31:33;98175.03;;;27.31;nan
9474;BME280;8865;47.636;7.692;2023-05-29T10:37:55;98162.09;;;28.12;nan
9474;BME280;8865;47.636;7.692;2023-05-29T10:40:03;98166.28;;;28.03;nan
9474;BME280;8865;47.636;7.692;2023-05-29T10:42:47;98163.53;;;28.42;nan
9474;BME280;8865;47.636;7.692;2023-05-29T10:50:50;98157.19;;;29.95;nan
9474;BME280;8865;47.636;7.692;2023-05-29T10:53:23;98149.06;;;30.43;nan
9474;BME280;8865;47.636;7.692;2023-05-29T10:55:50;98154.56;;;30.74;nan
9474;BME280;8865;47.636;7.692;2023-05-29T10:58:24;98144.91;;;31.04;nan
9474;BME280;8865;47.636;7.692;2023-05-29T11:00:52;98140.84;;;31.27;nan
9474;BME280;8865;47.636;7.692;2023-05-29T11:03:22;98142.22;;;31.40;nan
9474;BME280;8865;47.636;7.692;2023-05-29T11:05:59;98143.28;;;31.49;nan
9474;BME280;8865;47.636;7.692;2023-05-29T11:11:31;98141.06;;;31.97;nan
9474;BME280;8865;47.636;7.692;2023-05-29T11:14:04;98137.25;;;32.09;nan
9474;BME280;8865;47.636;7.692;2023-05-29T11:18:57;98138.41;;;32.57;nan
9474;BME280;8865;47.636;7.692;2023-05-29T11:23:52;98130.19;;;32.78;nan
9474;BME280;8865;47.636;7.692;2023-05-29T11:26:22;98135.47;;;33.04;nan
9474;BME280;8865;47.636;7.692;2023-05-29T11:28:48;98122.91;;;33.13;nan
9474;BME280;8865;47.636;7.692;2023-05-29T11:31:16;98130.53;;;33.45;nan
9474;BME280;8865;47.636;7.692;2023-05-29T11:33:48;98126.75;;;33.76;nan
9474;BME280;8865;47.636;7.692;2023-05-29T11:36:18;98126.56;;;33.91;nan
9474;BME280;8865;47.636;7.692;2023-05-29T11:38:47;98128.81;;;33.84;nan
9474;BME280;8865;47.636;7.692;2023-05-29T11:41:13;98116.53;;;33.62;nan
9474;BME280;8865;47.636;7.692;2023-05-29T11:43:42;98115.47;;;33.88;nan
9474;BME280;8865;47.636;7.692;2023-05-29T11:46:18;98113.00;;;33.91;nan
9474;BME280;8865;47.636;7.692;2023-05-29T11:48:46;98113.78;;;33.92;nan
9474;BME280;8865;47.636;7.692;2023-05-29T11:51:12;98109.56;;;34.05;nan
9474;BME280;8865;47.636;7.692;2023-05-29T11:53:43;98103.84;;;34.06;nan
9474;BME280;8865;47.636;7.692;2023-05-29T11:56:10;98102.47;;;34.33;nan
9474;BME280;8865;47.636;7.692;2023-05-29T11:58:40;98095.94;;;34.53;nan
9474;BME280;8865;47.636;7.692;2023-05-29T12:01:07;98094.22;;;34.57;nan
9474;BME280;8865;47.636;7.692;2023-05-29T12:03:45;98097.31;;;34.69;nan
9474;BME280;8865;47.636;7.692;2023-05-29T12:06:11;98096.38;;;34.79;nan
9474;BME280;8865;47.636;7.692;2023-05-29T12:08:38;98097.91;;;34.66;nan
9474;BME280;8865;47.636;7.692;2023-05-29T12:11:05;98090.81;;;34.90;nan
9474;BME280;8865;47.636;7.692;2023-05-29T12:13:31;98091.69;;;35.18;nan
9474;BME280;8865;47.636;7.692;2023-05-29T12:15:59;98090.75;;;35.41;nan
9474;BME280;8865;47.636;7.692;2023-05-29T12:18:27;98084.03;;;35.67;nan
9474;BME280;8865;47.636;7.692;2023-05-29T12:21:03;98078.72;;;36.03;nan
9474;BME280;8865;47.636;7.692;2023-05-29T12:23:29;98069.34;;;35.96;nan
9474;BME280;8865;47.636;7.692;2023-05-29T12:25:57;98072.09;;;36.46;nan
9474;BME280;8865;47.636;7.692;2023-05-29T12:28:25;98080.78;;;36.85;nan
9474;BME280;8865;47.636;7.692;2023-05-29T12:30:58;98077.91;;;37.26;nan
9474;BME280;8865;47.636;7.692;2023-05-29T12:33:28;98077.47;;;37.73;nan
9474;BME280;8865;47.636;7.692;2023-05-29T12:36:02;98080.56;;;37.89;nan
9474;BME280;8865;47.636;7.692;2023-05-29T12:38:28;98073.88;;;37.95;nan
9474;BME280;8865;47.636;7.692;2023-05-29T12:40:54;98074.47;;;37.83;nan
9474;BME280;8865;47.636;7.692;2023-05-29T12:43:20;98076.59;;;37.95;nan
9474;BME280;8865;47.636;7.692;2023-05-29T12:45:56;98074.44;;;38.23;nan
9474;BME280;8865;47.636;7.692;2023-05-29T12:48:26;98076.06;;;38.42;nan
9474;BME280;8865;47.636;7.692;2023-05-29T12:50:53;98074.31;;;38.46;nan
9474;BME280;8865;47.636;7.692;2023-05-29T12:53:19;98075.25;;;38.59;nan
9474;BME280;8865;47.636;7.692;2023-05-29T12:55:48;98068.50;;;38.48;nan
9474;BME280;8865;47.636;7.692;2023-05-29T12:58:15;98066.91;;;38.55;nan
9474;BME280;8865;47.636;7.692;2023-05-29T13:00:43;98065.13;;;38.42;nan
9474;BME280;8865;47.636;7.692;2023-05-29T13:03:09;98070.03;;;38.14;nan
9474;BME280;8865;47.636;7.692;2023-05-29T13:05:38;98060.63;;;37.48;nan
9474;BME280;8865;47.636;7.692;2023-05-29T13:08:05;98069.38;;;37.05;nan
9474;BME280;8865;47.636;7.692;2023-05-29T13:10:33;98059.41;;;36.64;nan
9474;BME280;8865;47.636;7.692;2023-05-29T13:13:00;98063.03;;;36.23;nan
9474;BME280;8865;47.636;7.692;2023-05-29T13:15:26;98068.31;;;36.05;nan
9474;BME280;8865;47.636;7.692;2023-05-29T13:17:53;98060.16;;;35.91;nan
9474;BME280;8865;47.636;7.692;2023-05-29T13:20:19;98054.28;;;35.84;nan
9474;BME280;8865;47.636;7.692;2023-05-29T13:22:46;98055.69;;;35.82;nan
9474;BME280;8865;47.636;7.692;2023-05-29T13:25:14;98043.50;;;35.79;nan
9474;BME280;8865;47.636;7.692;2023-05-29T13:27:43;98045.91;;;35.94;nan
9474;BME280;8865;47.636;7.692;2023-05-29T13:30:10;98056.19;;;36.11;nan
9474;BME280;8865;47.636;7.692;2023-05-29T13:32:37;98053.03;;;36.18;nan
9474;BME280;8865;47.636;7.692;2023-05-29T13:35:03;98049.03;;;36.02;nan
9474;BME280;8865;47.636;7.692;2023-05-29T13:37:29;98041.94;;;36.28;nan
9474;BME280;8865;47.636;7.692;2023-05-29T13:39:55;98046.38;;;36.10;nan
9474;BME280;8865;47.636;7.692;2023-05-29T13:42:22;98039.09;;;36.34;nan
9474;BME280;8865;47.636;7.692;2023-05-29T13:44:48;98037.88;;;36.40;nan
9474;BME280;8865;47.636;7.692;2023-05-29T13:47:15;98032.22;;;36.22;nan
9474;BME280;8865;47.636;7.692;2023-05-29T13:49:42;98031.16;;;36.09;nan
9474;BME280;8865;47.636;7.692;2023-05-29T13:52:08;98026.75;;;35.86;nan
9474;BME280;8865;47.636;7.692;2023-05-29T13:54:35;98013.41;;;35.56;nan
9474;BME280;8865;47.636;7.692;2023-05-29T13:57:02;98017.31;;;34.90;nan
9474;BME280;8865;47.636;7.692;2023-05-29T13:59:30;98035.47;;;33.75;nan
9474;BME280;8865;47.636;7.692;2023-05-29T14:01:56;98036.44;;;33.01;nan
9474;BME280;8865;47.636;7.692;2023-05-29T14:04:22;98032.03;;;32.76;nan
9474;BME280;8865;47.636;7.692;2023-05-29T14:06:48;98028.00;;;32.63;nan
9474;BME280;8865;47.636;7.692;2023-05-29T14:09:14;98031.28;;;32.65;nan
9474;BME280;8865;47.636;7.692;2023-05-29T14:11:40;98022.09;;;32.56;nan
9474;BME280;8865;47.636;7.692;2023-05-29T14:14:07;98026.44;;;32.57;nan
9474;BME280;8865;47.636;7.692;2023-05-29T14:16:33;98018.03;;;32.14;nan